createdAt,value
2018-10-05T00:04:57.644Z,17
2018-10-05T00:09:57.876Z,16
2018-10-05T00:14:57.546Z,18
2018-10-05T00:19:57.561Z,17
2018-10-05T00:24:57.678Z,15
2018-10-05T00:29:57.907Z,17
2018-10-05T00:34:58.028Z,18
2018-10-05T00:39:57.755Z,18
2018-10-05T00:44:57.736Z,20
2018-10-05T00:49:57.865Z,16
2018-10-05T00:54:57.752Z,19
2018-10-05T00:59:57.677Z,19
2018-10-05T01:04:57.973Z,18
2018-10-05T01:09:58.164Z,17
2018-10-05T01:15:00.979Z,18
2018-10-05T01:20:01.729Z,20
2018-10-05T01:25:01.359Z,19
2018-10-05T01:30:06.519Z,19
2018-10-05T01:34:59.839Z,17
2018-10-05T01:40:02.512Z,17
2018-10-05T01:44:59.236Z,20
2018-10-05T01:50:02.324Z,14
2018-10-05T01:54:59.382Z,17
2018-10-05T01:59:58.158Z,17
2018-10-05T02:04:58.120Z,18
2018-10-05T02:10:03.593Z,18
2018-10-05T02:14:58.139Z,17
2018-10-05T02:19:59.537Z,0
2018-10-05T02:24:59.260Z,15
2018-10-05T02:29:58.062Z,19
2018-10-05T02:34:58.155Z,17
2018-10-05T02:39:58.468Z,16
2018-10-05T02:45:03.273Z,0
2018-10-05T02:49:58.294Z,19
2018-10-05T02:54:58.259Z,16
2018-10-05T02:59:58.587Z,18
2018-10-05T03:04:58.325Z,16
2018-10-05T03:09:57.888Z,20
2018-10-05T03:14:57.751Z,19
2018-10-05T03:19:57.638Z,18
2018-10-05T03:24:58.069Z,15
2018-10-05T03:29:57.757Z,15
2018-10-05T03:34:57.981Z,15
2018-10-05T03:39:57.656Z,16
2018-10-05T03:44:57.792Z,15
2018-10-05T03:50:01.647Z,17
2018-10-05T03:55:04.413Z,16
2018-10-05T03:59:57.731Z,16
2018-10-05T04:04:58.385Z,14
2018-10-05T04:09:58.134Z,15
2018-10-05T04:14:57.967Z,16
2018-10-05T04:19:59.720Z,14
2018-10-05T04:24:57.571Z,17
2018-10-05T04:29:57.598Z,14
2018-10-05T04:34:57.617Z,14
2018-10-05T04:39:57.816Z,13
2018-10-05T04:44:58.400Z,15
2018-10-05T04:49:57.504Z,14
2018-10-05T04:54:57.599Z,0
2018-10-05T05:00:02.296Z,13
2018-10-05T05:04:58.516Z,16
2018-10-05T05:09:57.539Z,17
2018-10-05T05:14:57.334Z,16
2018-10-05T05:19:58.049Z,17
2018-10-05T05:24:57.587Z,15
2018-10-05T05:29:57.145Z,15
2018-10-05T05:35:02.301Z,16
2018-10-05T05:39:57.921Z,16
2018-10-05T05:44:57.079Z,16
2018-10-05T05:49:56.926Z,17
2018-10-05T05:54:57.210Z,18
2018-10-05T05:59:57.455Z,16
2018-10-05T06:04:57.267Z,18
2018-10-05T06:09:57.194Z,16
2018-10-05T06:14:57.599Z,16
2018-10-05T06:19:57.246Z,19
2018-10-05T06:24:57.252Z,15
2018-10-05T06:29:57.428Z,17
2018-10-05T06:34:56.906Z,16
2018-10-05T06:39:57.275Z,16
2018-10-05T06:44:57.019Z,16
2018-10-05T06:49:57.192Z,13
2018-10-05T06:54:56.967Z,16
2018-10-05T06:59:57.115Z,14
2018-10-05T07:04:57.472Z,15
2018-10-05T07:09:57.973Z,16
2018-10-05T07:14:57.430Z,19
2018-10-05T07:19:57.265Z,17
2018-10-05T07:24:58.205Z,20
2018-10-05T07:29:57.096Z,17
2018-10-05T07:34:56.758Z,17
2018-10-05T07:39:57.243Z,17
2018-10-05T07:44:56.945Z,17
2018-10-05T07:49:57.056Z,17
2018-10-05T07:54:57.038Z,20
2018-10-05T07:59:57.075Z,16
2018-10-05T08:04:57.343Z,15
2018-10-05T08:10:10.678Z,18
2018-10-05T08:14:56.711Z,18
2018-10-05T08:19:57.072Z,17
2018-10-05T08:24:56.997Z,16
2018-10-05T08:29:56.813Z,17
2018-10-05T08:34:56.748Z,16
2018-10-05T08:39:57.143Z,14
2018-10-05T08:44:56.665Z,17
2018-10-05T08:49:56.756Z,16
2018-10-05T08:54:56.720Z,14
2018-10-05T08:59:56.983Z,16
2018-10-05T09:04:56.880Z,16
2018-10-05T09:09:56.659Z,14
2018-10-05T09:14:56.668Z,15
2018-10-05T09:19:57.022Z,14
2018-10-05T09:24:56.701Z,15
2018-10-05T09:29:56.917Z,14
2018-10-05T09:34:56.632Z,14
2018-10-05T09:39:56.927Z,12
2018-10-05T09:44:56.841Z,15
2018-10-05T09:49:56.741Z,12
2018-10-05T09:54:56.751Z,15
2018-10-05T09:59:56.956Z,11
2018-10-05T10:04:56.642Z,15
2018-10-05T10:09:56.517Z,14
2018-10-05T10:14:56.847Z,0
2018-10-05T10:19:56.802Z,13
2018-10-05T10:24:56.793Z,13
2018-10-05T10:29:56.847Z,12
2018-10-05T10:34:56.823Z,12
2018-10-05T10:39:56.693Z,13
2018-10-05T10:44:56.724Z,13
2018-10-05T10:49:56.583Z,12
2018-10-05T10:54:56.809Z,12
2018-10-05T10:59:56.710Z,12
2018-10-05T11:04:56.919Z,13
2018-10-05T11:09:56.767Z,11
2018-10-05T11:14:56.600Z,10
2018-10-05T11:19:57.425Z,9
2018-10-05T11:24:56.591Z,11
2018-10-05T11:29:56.611Z,10
2018-10-05T11:35:25.858Z,11
2018-10-05T11:39:57.022Z,10
2018-10-05T11:54:59.262Z,10
2018-10-05T11:59:56.681Z,11
2018-10-05T12:04:56.778Z,10
2018-10-05T12:09:56.696Z,11
2018-10-05T12:14:56.716Z,11
2018-10-05T12:19:56.713Z,11
2018-10-05T12:24:56.577Z,11
2018-10-05T12:29:56.728Z,11
2018-10-05T12:34:56.612Z,11
2018-10-05T12:39:56.414Z,9
2018-10-05T12:44:56.344Z,12
2018-10-05T12:49:56.452Z,12
2018-10-05T12:54:56.586Z,12
2018-10-05T12:59:56.668Z,11
2018-10-05T13:04:56.384Z,8
2018-10-05T13:09:56.407Z,10
2018-10-05T13:14:56.619Z,10
2018-10-05T13:19:56.487Z,9
2018-10-05T13:24:56.496Z,10
2018-10-05T13:29:56.362Z,10
2018-10-05T13:34:56.494Z,11
2018-10-05T13:39:56.614Z,11
2018-10-05T13:44:56.439Z,9
2018-10-05T13:49:56.569Z,10
2018-10-05T13:54:56.435Z,10
2018-10-05T13:59:56.247Z,10
2018-10-05T14:04:56.432Z,11
2018-10-05T14:09:56.581Z,9
2018-10-05T14:14:56.508Z,11
2018-10-05T14:19:56.445Z,9
2018-10-05T14:24:56.469Z,8
2018-10-05T14:29:56.213Z,10
2018-10-05T14:34:56.273Z,11
2018-10-05T14:39:56.454Z,8
2018-10-05T14:44:56.512Z,12
2018-10-05T14:49:56.161Z,9
2018-10-05T14:54:56.493Z,8
2018-10-05T14:59:56.478Z,10
2018-10-05T15:04:56.405Z,8
2018-10-05T15:09:56.297Z,10
2018-10-05T15:14:56.293Z,8
2018-10-05T15:19:56.665Z,8
2018-10-05T15:24:56.395Z,8
2018-10-05T15:29:56.136Z,8
2018-10-05T15:34:56.195Z,8
2018-10-05T15:39:56.351Z,8
2018-10-05T15:44:56.081Z,8
2018-10-05T15:49:56.198Z,8
2018-10-05T15:54:56.253Z,7
2018-10-05T15:59:56.346Z,8
2018-10-05T16:04:56.092Z,8
2018-10-05T16:09:56.234Z,8
2018-10-05T16:14:56.115Z,8
2018-10-05T16:19:56.168Z,10
2018-10-05T16:24:56.351Z,8
2018-10-05T16:29:56.020Z,8
2018-10-05T16:34:56.083Z,7
2018-10-05T16:39:55.984Z,8
2018-10-05T16:44:56.165Z,10
2018-10-05T16:49:56.324Z,8
2018-10-05T16:54:56.194Z,10
2018-10-05T16:59:56.001Z,8
2018-10-05T17:04:56.160Z,10
2018-10-05T17:09:56.231Z,7
2018-10-05T17:14:56.160Z,8
2018-10-05T17:19:56.067Z,8
2018-10-05T17:24:55.932Z,8
2018-10-05T17:29:56.156Z,9
2018-10-05T17:34:56.263Z,8
2018-10-05T17:39:56.236Z,10
2018-10-05T17:44:56.249Z,10
2018-10-05T17:49:56.240Z,13
2018-10-05T17:54:55.976Z,12
2018-10-05T17:59:55.911Z,14
2018-10-05T18:04:56.072Z,12
2018-10-05T18:09:56.235Z,11
